sensor_id;sensor_type;location;lat;lon;timestamp;pressure;altitude;pressure_sealevel;temperature;humidity
62055;BME280;48653;51.742;-1.256;2023-04-27T00:01:54;101175.89;;;9.33;42.02
62055;BME280;48653;51.742;-1.256;2023-04-27T00:04:20;101173.10;;;9.66;41.90
62055;BME280;48653;51.742;-1.256;2023-04-27T00:06:45;101176.81;;;9.70;42.09
62055;BME280;48653;51.742;-1.256;2023-04-27T00:09:11;101171.84;;;9.37;42.27
62055;BME280;48653;51.742;-1.256;2023-04-27T00:11:36;101168.11;;;9.48;42.35
62055;BME280;48653;51.742;-1.256;2023-04-27T00:14:02;101164.33;;;9.33;42.56
62055;BME280;48653;51.742;-1.256;2023-04-27T00:16:27;101159.62;;;9.54;42.50
62055;BME280;48653;51.742;-1.256;2023-04-27T00:18:53;101156.77;;;9.19;42.79
62055;BME280;48653;51.742;-1.256;2023-04-27T00:21:18;101155.24;;;8.95;43.63
62055;BME280;48653;51.742;-1.256;2023-04-27T00:23:44;101151.51;;;9.35;42.69
62055;BME280;48653;51.742;-1.256;2023-04-27T00:26:10;101145.62;;;9.30;42.59
62055;BME280;48653;51.742;-1.256;2023-04-27T00:28:35;101147.27;;;9.23;43.00
62055;BME280;48653;51.742;-1.256;2023-04-27T00:31:01;101143.70;;;9.07;42.73
62055;BME280;48653;51.742;-1.256;2023-04-27T00:33:26;101137.76;;;9.01;42.56
62055;BME280;48653;51.742;-1.256;2023-04-27T00:35:51;101132.33;;;9.21;42.91
62055;BME280;48653;51.742;-1.256;2023-04-27T00:38:17;101124.49;;;9.27;42.26
62055;BME280;48653;51.742;-1.256;2023-04-27T00:40:43;101121.76;;;9.12;43.22
62055;BME280;48653;51.742;-1.256;2023-04-27T00:43:08;101115.85;;;8.55;43.52
62055;BME280;48653;51.742;-1.256;2023-04-27T00:45:38;101110.74;;;8.85;43.26
62055;BME280;48653;51.742;-1.256;2023-04-27T00:47:59;101108.85;;;8.84;42.89
62055;BME280;48653;51.742;-1.256;2023-04-27T00:50:27;101107.28;;;8.59;42.94
62055;BME280;48653;51.742;-1.256;2023-04-27T00:52:50;101103.98;;;8.55;43.58
62055;BME280;48653;51.742;-1.256;2023-04-27T00:55:15;101095.95;;;8.58;43.82
62055;BME280;48653;51.742;-1.256;2023-04-27T00:57:41;101094.07;;;8.65;43.66
62055;BME280;48653;51.742;-1.256;2023-04-27T01:00:07;101086.93;;;7.94;44.47
62055;BME280;48653;51.742;-1.256;2023-04-27T01:02:32;101091.62;;;8.45;43.52
62055;BME280;48653;51.742;-1.256;2023-04-27T01:04:57;101090.54;;;7.95;44.22
62055;BME280;48653;51.742;-1.256;2023-04-27T01:07:24;101091.44;;;8.12;44.28
62055;BME280;48653;51.742;-1.256;2023-04-27T01:09:48;101094.48;;;8.22;44.09
62055;BME280;48653;51.742;-1.256;2023-04-27T01:12:14;101093.76;;;8.21;44.02
62055;BME280;48653;51.742;-1.256;2023-04-27T01:14:39;101095.71;;;8.17;44.25
62055;BME280;48653;51.742;-1.256;2023-04-27T01:17:05;101099.53;;;8.08;43.81
62055;BME280;48653;51.742;-1.256;2023-04-27T01:19:30;101103.92;;;7.74;44.53
62055;BME280;48653;51.742;-1.256;2023-04-27T01:21:55;101102.41;;;7.65;44.90
62055;BME280;48653;51.742;-1.256;2023-04-27T01:24:21;101106.61;;;7.70;44.52
62055;BME280;48653;51.742;-1.256;2023-04-27T01:26:46;101110.17;;;7.73;44.11
62055;BME280;48653;51.742;-1.256;2023-04-27T01:29:11;101112.46;;;7.88;43.90
62055;BME280;48653;51.742;-1.256;2023-04-27T01:31:37;101114.57;;;7.89;43.67
62055;BME280;48653;51.742;-1.256;2023-04-27T01:34:03;101119.88;;;7.60;44.61
62055;BME280;48653;51.742;-1.256;2023-04-27T01:36:29;101118.26;;;7.54;44.14
62055;BME280;48653;51.742;-1.256;2023-04-27T01:38:54;101120.18;;;7.53;44.31
62055;BME280;48653;51.742;-1.256;2023-04-27T01:41:20;101124.75;;;7.47;44.16
62055;BME280;48653;51.742;-1.256;2023-04-27T01:43:46;101127.31;;;7.51;44.03
62055;BME280;48653;51.742;-1.256;2023-04-27T01:46:12;101134.99;;;7.47;44.26
62055;BME280;48653;51.742;-1.256;2023-04-27T01:48:37;101140.38;;;7.38;45.17
62055;BME280;48653;51.742;-1.256;2023-04-27T01:51:02;101142.68;;;7.59;44.33
62055;BME280;48653;51.742;-1.256;2023-04-27T01:53:27;101144.52;;;7.12;45.46
62055;BME280;48653;51.742;-1.256;2023-04-27T01:55:53;101138.27;;;7.52;44.80
62055;BME280;48653;51.742;-1.256;2023-04-27T01:58:18;101134.80;;;7.15;44.64
62055;BME280;48653;51.742;-1.256;2023-04-27T02:00:44;101139.06;;;7.33;45.30
62055;BME280;48653;51.742;-1.256;2023-04-27T02:03:11;101138.74;;;6.89;45.43
62055;BME280;48653;51.742;-1.256;2023-04-27T02:05:36;101139.50;;;6.90;44.81
62055;BME280;48653;51.742;-1.256;2023-04-27T02:08:01;101139.47;;;7.31;44.76
62055;BME280;48653;51.742;-1.256;2023-04-27T02:10:26;101134.21;;;7.00;45.34
62055;BME280;48653;51.742;-1.256;2023-04-27T02:12:52;101125.77;;;7.25;44.78
62055;BME280;48653;51.742;-1.256;2023-04-27T02:15:17;101121.71;;;7.02;45.03
62055;BME280;48653;51.742;-1.256;2023-04-27T02:17:43;101124.12;;;6.96;45.45
62055;BME280;48653;51.742;-1.256;2023-04-27T02:20:09;101122.56;;;7.33;45.59
62055;BME280;48653;51.742;-1.256;2023-04-27T02:22:33;101120.06;;;7.02;45.98
62055;BME280;48653;51.742;-1.256;2023-04-27T02:24:59;101118.02;;;7.40;45.72
62055;BME280;48653;51.742;-1.256;2023-04-27T02:27:24;101114.21;;;7.16;46.09
62055;BME280;48653;51.742;-1.256;2023-04-27T02:29:49;101107.94;;;6.99;45.56
62055;BME280;48653;51.742;-1.256;2023-04-27T02:32:14;101106.53;;;7.16;45.90
62055;BME280;48653;51.742;-1.256;2023-04-27T02:34:39;101104.05;;;6.57;45.89
62055;BME280;48653;51.742;-1.256;2023-04-27T02:37:05;101099.88;;;6.73;46.65
62055;BME280;48653;51.742;-1.256;2023-04-27T02:39:30;101102.06;;;6.89;46.38
62055;BME280;48653;51.742;-1.256;2023-04-27T02:41:56;101097.24;;;6.99;45.85
62055;BME280;48653;51.742;-1.256;2023-04-27T02:44:22;101093.73;;;7.01;45.69
62055;BME280;48653;51.742;-1.256;2023-04-27T02:46:49;101092.10;;;7.22;45.63
62055;BME280;48653;51.742;-1.256;2023-04-27T02:49:14;101096.37;;;6.91;46.19
62055;BME280;48653;51.742;-1.256;2023-04-27T02:51:38;101096.38;;;7.24;45.92
62055;BME280;48653;51.742;-1.256;2023-04-27T02:54:04;101098.31;;;6.91;46.43
62055;BME280;48653;51.742;-1.256;2023-04-27T02:56:29;101097.40;;;6.78;46.47
62055;BME280;48653;51.742;-1.256;2023-04-27T02:58:54;101099.90;;;6.85;46.30
62055;BME280;48653;51.742;-1.256;2023-04-27T03:01:19;101098.44;;;6.86;46.21
62055;BME280;48653;51.742;-1.256;2023-04-27T03:03:45;101091.67;;;6.73;46.16
62055;BME280;48653;51.742;-1.256;2023-04-27T03:06:10;101088.80;;;6.69;46.25
62055;BME280;48653;51.742;-1.256;2023-04-27T03:08:36;101089.29;;;6.54;46.62
62055;BME280;48653;51.742;-1.256;2023-04-27T03:11:02;101089.22;;;6.60;46.08
62055;BME280;48653;51.742;-1.256;2023-04-27T03:13:27;101088.27;;;6.57;46.33
62055;BME280;48653;51.742;-1.256;2023-04-27T03:15:52;101086.52;;;6.22;46.87
62055;BME280;48653;51.742;-1.256;2023-04-27T03:18:17;101083.60;;;6.52;46.15
62055;BME280;48653;51.742;-1.256;2023-04-27T03:20:43;101084.89;;;6.50;46.22
62055;BME280;48653;51.742;-1.256;2023-04-27T03:23:08;101084.94;;;6.33;46.20
62055;BME280;48653;51.742;-1.256;2023-04-27T03:25:34;101086.78;;;6.54;46.43
62055;BME280;48653;51.742;-1.256;2023-04-27T03:27:59;101079.75;;;6.51;45.74
62055;BME280;48653;51.742;-1.256;2023-04-27T03:30:25;101072.54;;;6.57;46.23
62055;BME280;48653;51.742;-1.256;2023-04-27T03:32:50;101071.87;;;6.37;46.15
62055;BME280;48653;51.742;-1.256;2023-04-27T03:35:16;101068.65;;;6.41;46.57
62055;BME280;48653;51.742;-1.256;2023-04-27T03:37:41;101062.09;;;6.45;46.65
62055;BME280;48653;51.742;-1.256;2023-04-27T03:40:08;101062.36;;;6.37;46.88
62055;BME280;48653;51.742;-1.256;2023-04-27T03:42:33;101063.50;;;6.17;46.81
62055;BME280;48653;51.742;-1.256;2023-04-27T03:44:59;101059.22;;;6.43;46.83
62055;BME280;48653;51.742;-1.256;2023-04-27T03:47:25;101056.51;;;6.26;46.06
62055;BME280;48653;51.742;-1.256;2023-04-27T03:49:50;101056.99;;;6.30;47.33
62055;BME280;48653;51.742;-1.256;2023-04-27T03:52:15;101053.93;;;6.40;46.92
62055;BME280;48653;51.742;-1.256;2023-04-27T03:54:41;101053.46;;;6.87;46.28
62055;BME280;48653;51.742;-1.256;2023-04-27T03:57:06;101054.90;;;6.54;46.05
62055;BME280;48653;51.742;-1.256;2023-04-27T03:59:32;101057.35;;;6.25;47.28
62055;BME280;48653;51.742;-1.256;2023-04-27T04:01:57;101053.80;;;6.37;47.64
62055;BME280;48653;51.742;-1.256;2023-04-27T04:04:22;101055.18;;;6.65;47.22
62055;BME280;48653;51.742;-1.256;2023-04-27T04:06:48;101054.02;;;6.68;47.56
62055;BME280;48653;51.742;-1.256;2023-04-27T04:09:13;101057.40;;;6.66;47.69
62055;BME280;48653;51.742;-1.256;2023-04-27T04:11:38;101052.31;;;6.83;47.06
62055;BME280;48653;51.742;-1.256;2023-04-27T04:14:03;101050.15;;;6.99;46.98
62055;BME280;48653;51.742;-1.256;2023-04-27T04:16:29;101046.83;;;6.92;47.16
62055;BME280;48653;51.742;-1.256;2023-04-27T04:18:54;101042.99;;;6.98;47.56
62055;BME280;48653;51.742;-1.256;2023-04-27T04:21:19;101038.08;;;7.10;47.60
62055;BME280;48653;51.742;-1.256;2023-04-27T04:23:45;101039.50;;;7.14;47.08
62055;BME280;48653;51.742;-1.256;2023-04-27T04:26:10;101038.89;;;7.06;47.77
62055;BME280;48653;51.742;-1.256;2023-04-27T04:28:35;101034.18;;;6.95;47.25
62055;BME280;48653;51.742;-1.256;2023-04-27T04:31:01;101031.66;;;7.13;47.30
62055;BME280;48653;51.742;-1.256;2023-04-27T04:33:26;101028.35;;;7.00;48.23
62055;BME280;48653;51.742;-1.256;2023-04-27T04:35:52;101027.31;;;6.88;47.72
62055;BME280;48653;51.742;-1.256;2023-04-27T04:38:17;101024.45;;;7.52;47.76
62055;BME280;48653;51.742;-1.256;2023-04-27T04:40:42;101020.69;;;7.32;48.78
62055;BME280;48653;51.742;-1.256;2023-04-27T04:43:08;101014.15;;;7.12;47.59
62055;BME280;48653;51.742;-1.256;2023-04-27T04:45:33;101010.68;;;7.50;47.94
62055;BME280;48653;51.742;-1.256;2023-04-27T04:47:58;101007.06;;;7.55;47.53
62055;BME280;48653;51.742;-1.256;2023-04-27T04:50:24;101008.72;;;7.37;47.25
62055;BME280;48653;51.742;-1.256;2023-04-27T04:52:49;101006.27;;;7.28;47.41
62055;BME280;48653;51.742;-1.256;2023-04-27T04:55:15;101009.42;;;7.67;47.39
62055;BME280;48653;51.742;-1.256;2023-04-27T04:57:40;101007.58;;;7.76;47.24
62055;BME280;48653;51.742;-1.256;2023-04-27T05:00:06;101009.89;;;7.48;47.59
62055;BME280;48653;51.742;-1.256;2023-04-27T05:02:31;101009.40;;;7.68;47.34
62055;BME280;48653;51.742;-1.256;2023-04-27T05:04:56;101007.76;;;7.79;47.29
62055;BME280;48653;51.742;-1.256;2023-04-27T05:07:21;101010.10;;;7.88;47.24
62055;BME280;48653;51.742;-1.256;2023-04-27T05:09:46;101018.00;;;7.74;47.46
62055;BME280;48653;51.742;-1.256;2023-04-27T05:12:12;101015.16;;;7.85;47.24
62055;BME280;48653;51.742;-1.256;2023-04-27T05:14:37;101014.95;;;7.75;47.33
62055;BME280;48653;51.742;-1.256;2023-04-27T05:17:03;101016.20;;;7.86;47.63
62055;BME280;48653;51.742;-1.256;2023-04-27T05:19:29;101014.97;;;7.84;47.14
62055;BME280;48653;51.742;-1.256;2023-04-27T05:21:54;101015.94;;;7.81;47.20
62055;BME280;48653;51.742;-1.256;2023-04-27T05:24:19;101017.76;;;8.37;46.54
62055;BME280;48653;51.742;-1.256;2023-04-27T05:26:45;101016.47;;;8.17;46.55
62055;BME280;48653;51.742;-1.256;2023-04-27T05:29:10;101021.36;;;8.19;47.37
62055;BME280;48653;51.742;-1.256;2023-04-27T05:31:35;101024.21;;;8.48;47.04
62055;BME280;48653;51.742;-1.256;2023-04-27T05:34:01;101028.93;;;8.42;46.77
62055;BME280;48653;51.742;-1.256;2023-04-27T05:36:26;101028.74;;;8.37;47.20
62055;BME280;48653;51.742;-1.256;2023-04-27T05:38:51;101026.00;;;8.14;47.01
62055;BME280;48653;51.742;-1.256;2023-04-27T05:41:16;101021.95;;;8.34;46.72
62055;BME280;48653;51.742;-1.256;2023-04-27T05:43:42;101021.03;;;8.37;47.56
62055;BME280;48653;51.742;-1.256;2023-04-27T05:46:08;101020.02;;;8.89;46.68
62055;BME280;48653;51.742;-1.256;2023-04-27T05:48:33;101021.80;;;8.55;46.38
62055;BME280;48653;51.742;-1.256;2023-04-27T05:50:59;101019.79;;;8.59;47.15
62055;BME280;48653;51.742;-1.256;2023-04-27T05:53:23;101017.53;;;8.90;46.50
62055;BME280;48653;51.742;-1.256;2023-04-27T05:55:49;101015.04;;;8.92;46.76
62055;BME280;48653;51.742;-1.256;2023-04-27T05:58:15;101016.27;;;8.74;46.62
62055;BME280;48653;51.742;-1.256;2023-04-27T06:00:40;101017.20;;;8.63;46.48
62055;BME280;48653;51.742;-1.256;2023-04-27T06:03:06;101014.28;;;9.05;45.82
62055;BME280;48653;51.742;-1.256;2023-04-27T06:05:32;101010.00;;;9.03;45.73
62055;BME280;48653;51.742;-1.256;2023-04-27T06:07:57;101004.07;;;8.89;45.25
62055;BME280;48653;51.742;-1.256;2023-04-27T06:10:22;101003.64;;;9.13;46.06
62055;BME280;48653;51.742;-1.256;2023-04-27T06:12:48;101002.52;;;8.64;46.45
62055;BME280;48653;51.742;-1.256;2023-04-27T06:15:14;101001.56;;;7.95;47.16
62055;BME280;48653;51.742;-1.256;2023-04-27T06:17:39;101000.93;;;8.17;47.14
62055;BME280;48653;51.742;-1.256;2023-04-27T06:20:05;101002.12;;;7.75;47.91
62055;BME280;48653;51.742;-1.256;2023-04-27T06:22:30;100999.44;;;8.03;47.51
62055;BME280;48653;51.742;-1.256;2023-04-27T06:24:55;100998.06;;;7.85;47.59
62055;BME280;48653;51.742;-1.256;2023-04-27T06:27:20;100987.72;;;8.59;47.07
62055;BME280;48653;51.742;-1.256;2023-04-27T06:29:46;100985.93;;;7.75;48.50
62055;BME280;48653;51.742;-1.256;2023-04-27T06:32:11;100988.09;;;7.24;49.41
62055;BME280;48653;51.742;-1.256;2023-04-27T06:34:37;100991.49;;;7.88;48.52
62055;BME280;48653;51.742;-1.256;2023-04-27T06:37:03;100990.58;;;7.56;49.05
62055;BME280;48653;51.742;-1.256;2023-04-27T06:39:28;100985.91;;;8.03;47.32
62055;BME280;48653;51.742;-1.256;2023-04-27T06:41:54;100982.81;;;8.48;46.61
62055;BME280;48653;51.742;-1.256;2023-04-27T06:44:19;100988.44;;;8.05;47.51
62055;BME280;48653;51.742;-1.256;2023-04-27T06:46:45;100987.35;;;8.48;46.50
62055;BME280;48653;51.742;-1.256;2023-04-27T06:49:10;100990.43;;;8.55;47.23
62055;BME280;48653;51.742;-1.256;2023-04-27T06:51:35;100991.16;;;7.57;49.66
62055;BME280;48653;51.742;-1.256;2023-04-27T06:54:01;100988.68;;;7.63;49.09
62055;BME280;48653;51.742;-1.256;2023-04-27T06:56:26;100991.05;;;7.36;49.76
62055;BME280;48653;51.742;-1.256;2023-04-27T06:58:51;100987.44;;;7.70;49.55
62055;BME280;48653;51.742;-1.256;2023-04-27T07:01:17;100986.67;;;7.57;50.14
62055;BME280;48653;51.742;-1.256;2023-04-27T07:03:42;100985.61;;;7.78;49.72
62055;BME280;48653;51.742;-1.256;2023-04-27T07:06:08;100987.89;;;7.96;49.28
62055;BME280;48653;51.742;-1.256;2023-04-27T07:08:33;100996.57;;;8.01;48.77
62055;BME280;48653;51.742;-1.256;2023-04-27T07:10:59;100998.64;;;8.25;48.87
62055;BME280;48653;51.742;-1.256;2023-04-27T07:13:24;101006.82;;;8.03;49.00
62055;BME280;48653;51.742;-1.256;2023-04-27T07:15:53;101008.04;;;8.24;48.42
62055;BME280;48653;51.742;-1.256;2023-04-27T07:18:15;101007.08;;;8.32;47.95
62055;BME280;48653;51.742;-1.256;2023-04-27T07:20:40;100999.53;;;8.60;47.19
62055;BME280;48653;51.742;-1.256;2023-04-27T07:23:06;100993.03;;;8.13;48.50
62055;BME280;48653;51.742;-1.256;2023-04-27T07:25:31;100992.61;;;7.90;49.27
62055;BME280;48653;51.742;-1.256;2023-04-27T07:27:57;100989.68;;;7.89;49.21
62055;BME280;48653;51.742;-1.256;2023-04-27T07:30:23;100985.32;;;7.67;50.12
62055;BME280;48653;51.742;-1.256;2023-04-27T07:32:48;100982.91;;;7.95;49.29
62055;BME280;48653;51.742;-1.256;2023-04-27T07:35:14;100982.53;;;7.97;49.07
62055;BME280;48653;51.742;-1.256;2023-04-27T07:37:39;100981.71;;;8.45;48.33
62055;BME280;48653;51.742;-1.256;2023-04-27T07:40:06;100979.43;;;8.16;48.27
62055;BME280;48653;51.742;-1.256;2023-04-27T07:42:30;100982.86;;;8.22;47.91
62055;BME280;48653;51.742;-1.256;2023-04-27T07:44:55;100980.72;;;8.35;48.37
62055;BME280;48653;51.742;-1.256;2023-04-27T07:47:20;100991.84;;;7.55;48.77
62055;BME280;48653;51.742;-1.256;2023-04-27T07:49:46;100989.98;;;7.98;48.05
62055;BME280;48653;51.742;-1.256;2023-04-27T07:52:12;100998.10;;;8.42;47.49
62055;BME280;48653;51.742;-1.256;2023-04-27T07:54:38;101002.80;;;7.96;48.96
62055;BME280;48653;51.742;-1.256;2023-04-27T07:57:07;101003.99;;;8.26;48.01
62055;BME280;48653;51.742;-1.256;2023-04-27T07:59:28;101002.56;;;8.70;46.86
62055;BME280;48653;51.742;-1.256;2023-04-27T08:01:54;100998.50;;;8.98;46.09
62055;BME280;48653;51.742;-1.256;2023-04-27T08:04:19;100991.97;;;9.18;45.91
62055;BME280;48653;51.742;-1.256;2023-04-27T08:06:44;100996.46;;;7.92;47.90
62055;BME280;48653;51.742;-1.256;2023-04-27T08:09:09;100983.11;;;8.09;47.88
62055;BME280;48653;51.742;-1.256;2023-04-27T08:11:35;100982.24;;;8.18;47.04
62055;BME280;48653;51.742;-1.256;2023-04-27T08:14:01;100978.65;;;8.71;46.68
62055;BME280;48653;51.742;-1.256;2023-04-27T08:16:26;100976.14;;;8.65;47.24
62055;BME280;48653;51.742;-1.256;2023-04-27T08:18:51;100964.24;;;8.90;46.28
62055;BME280;48653;51.742;-1.256;2023-04-27T08:21:16;100963.16;;;8.47;46.49
62055;BME280;48653;51.742;-1.256;2023-04-27T08:23:41;100962.75;;;8.03;48.43
62055;BME280;48653;51.742;-1.256;2023-04-27T08:26:07;100964.25;;;8.72;47.33
62055;BME280;48653;51.742;-1.256;2023-04-27T08:28:32;100958.53;;;8.87;45.94
62055;BME280;48653;51.742;-1.256;2023-04-27T08:30:58;100957.93;;;9.18;45.85
62055;BME280;48653;51.742;-1.256;2023-04-27T08:33:23;100954.43;;;8.64;47.01
62055;BME280;48653;51.742;-1.256;2023-04-27T08:35:48;100953.89;;;8.63;46.95
62055;BME280;48653;51.742;-1.256;2023-04-27T08:38:13;100945.82;;;9.01;46.04
62055;BME280;48653;51.742;-1.256;2023-04-27T08:40:42;100940.35;;;8.88;46.35
62055;BME280;48653;51.742;-1.256;2023-04-27T08:43:06;100940.59;;;9.12;46.45
62055;BME280;48653;51.742;-1.256;2023-04-27T08:45:31;100940.16;;;9.13;45.71
62055;BME280;48653;51.742;-1.256;2023-04-27T08:47:56;100936.53;;;8.79;46.74
62055;BME280;48653;51.742;-1.256;2023-04-27T08:50:22;100929.56;;;9.56;45.32
62055;BME280;48653;51.742;-1.256;2023-04-27T08:52:48;100927.58;;;9.68;45.07
62055;BME280;48653;51.742;-1.256;2023-04-27T08:55:13;100923.98;;;9.74;45.17
62055;BME280;48653;51.742;-1.256;2023-04-27T08:57:38;100919.67;;;9.24;46.07
62055;BME280;48653;51.742;-1.256;2023-04-27T09:00:05;100920.97;;;9.91;44.87
62055;BME280;48653;51.742;-1.256;2023-04-27T09:02:29;100923.08;;;9.54;45.56
62055;BME280;48653;51.742;-1.256;2023-04-27T09:04:54;100926.35;;;9.63;45.20
62055;BME280;48653;51.742;-1.256;2023-04-27T09:07:20;100927.82;;;9.70;45.13
62055;BME280;48653;51.742;-1.256;2023-04-27T09:09:46;100929.99;;;9.56;44.39
62055;BME280;48653;51.742;-1.256;2023-04-27T09:12:16;100929.18;;;9.31;44.88
62055;BME280;48653;51.742;-1.256;2023-04-27T09:14:36;100928.62;;;9.67;45.14
62055;BME280;48653;51.742;-1.256;2023-04-27T09:17:02;100929.79;;;10.04;43.54
62055;BME280;48653;51.742;-1.256;2023-04-27T09:19:28;100923.44;;;10.72;43.42
62055;BME280;48653;51.742;-1.256;2023-04-27T09:22:04;100924.11;;;10.03;43.85
62055;BME280;48653;51.742;-1.256;2023-04-27T09:24:18;100922.22;;;10.64;43.24
62055;BME280;48653;51.742;-1.256;2023-04-27T09:26:48;100927.72;;;11.38;42.19
62055;BME280;48653;51.742;-1.256;2023-04-27T09:29:09;100922.03;;;9.45;43.98
62055;BME280;48653;51.742;-1.256;2023-04-27T09:31:35;100920.20;;;9.80;44.41
62055;BME280;48653;51.742;-1.256;2023-04-27T09:34:00;100920.84;;;9.38;45.06
62055;BME280;48653;51.742;-1.256;2023-04-27T09:36:25;100916.54;;;9.65;45.32
62055;BME280;48653;51.742;-1.256;2023-04-27T09:38:51;100913.88;;;9.57;45.04
62055;BME280;48653;51.742;-1.256;2023-04-27T09:41:16;100908.32;;;9.12;45.78
62055;BME280;48653;51.742;-1.256;2023-04-27T09:43:42;100907.08;;;9.90;44.75
62055;BME280;48653;51.742;-1.256;2023-04-27T09:46:06;100907.73;;;9.78;45.12
62055;BME280;48653;51.742;-1.256;2023-04-27T09:48:32;100908.40;;;9.01;46.41
62055;BME280;48653;51.742;-1.256;2023-04-27T09:50:57;100908.79;;;9.44;45.77
62055;BME280;48653;51.742;-1.256;2023-04-27T09:53:29;100905.30;;;9.50;45.49
62055;BME280;48653;51.742;-1.256;2023-04-27T09:55:58;100890.27;;;10.05;45.34
62055;BME280;48653;51.742;-1.256;2023-04-27T09:58:24;100886.65;;;9.60;45.87
62055;BME280;48653;51.742;-1.256;2023-04-27T10:00:50;100883.56;;;9.75;45.64
62055;BME280;48653;51.742;-1.256;2023-04-27T10:03:14;100878.99;;;10.13;45.33
62055;BME280;48653;51.742;-1.256;2023-04-27T10:05:40;100877.19;;;10.49;44.45
62055;BME280;48653;51.742;-1.256;2023-04-27T10:07:55;100878.70;;;11.14;43.69
62055;BME280;48653;51.742;-1.256;2023-04-27T10:10:20;100870.37;;;10.38;44.58
62055;BME280;48653;51.742;-1.256;2023-04-27T10:12:55;100876.42;;;11.19;43.70
62055;BME280;48653;51.742;-1.256;2023-04-27T10:15:13;100870.97;;;10.40;43.93
62055;BME280;48653;51.742;-1.256;2023-04-27T10:17:37;100868.66;;;10.55;44.54
62055;BME280;48653;51.742;-1.256;2023-04-27T10:20:04;100874.76;;;10.20;44.00
62055;BME280;48653;51.742;-1.256;2023-04-27T10:22:37;100869.07;;;10.61;43.21
62055;BME280;48653;51.742;-1.256;2023-04-27T10:24:53;100862.05;;;10.44;44.09
62055;BME280;48653;51.742;-1.256;2023-04-27T10:27:19;100859.20;;;11.05;42.91
62055;BME280;48653;51.742;-1.256;2023-04-27T10:29:46;100854.67;;;10.89;43.83
62055;BME280;48653;51.742;-1.256;2023-04-27T10:32:11;100855.03;;;11.16;42.97
62055;BME280;48653;51.742;-1.256;2023-04-27T10:34:35;100850.07;;;10.16;44.61
62055;BME280;48653;51.742;-1.256;2023-04-27T10:37:04;100845.23;;;11.17;43.60
62055;BME280;48653;51.742;-1.256;2023-04-27T10:39:33;100836.64;;;10.83;43.86
62055;BME280;48653;51.742;-1.256;2023-04-27T10:41:53;100828.96;;;10.63;44.91
62055;BME280;48653;51.742;-1.256;2023-04-27T10:44:18;100826.85;;;10.68;44.21
62055;BME280;48653;51.742;-1.256;2023-04-27T10:46:49;100823.53;;;10.00;44.76
62055;BME280;48653;51.742;-1.256;2023-04-27T10:49:09;100817.03;;;11.06;43.45
62055;BME280;48653;51.742;-1.256;2023-04-27T10:51:34;100825.27;;;10.81;44.25
62055;BME280;48653;51.742;-1.256;2023-04-27T10:53:59;100816.48;;;11.05;44.57
62055;BME280;48653;51.742;-1.256;2023-04-27T10:56:24;100815.99;;;10.30;44.84
62055;BME280;48653;51.742;-1.256;2023-04-27T10:58:50;100814.94;;;10.15;45.37
62055;BME280;48653;51.742;-1.256;2023-04-27T11:01:23;100814.44;;;11.49;43.52
62055;BME280;48653;51.742;-1.256;2023-04-27T11:03:41;100815.05;;;11.60;42.53
62055;BME280;48653;51.742;-1.256;2023-04-27T11:06:07;100813.18;;;11.26;43.37
62055;BME280;48653;51.742;-1.256;2023-04-27T11:08:32;100803.54;;;11.00;44.06
62055;BME280;48653;51.742;-1.256;2023-04-27T11:10:57;100801.33;;;11.18;43.78
62055;BME280;48653;51.742;-1.256;2023-04-27T11:13:24;100794.25;;;11.97;42.78
62055;BME280;48653;51.742;-1.256;2023-04-27T11:15:49;100796.94;;;12.63;41.48
62055;BME280;48653;51.742;-1.256;2023-04-27T11:18:13;100806.33;;;12.71;40.46
62055;BME280;48653;51.742;-1.256;2023-04-27T11:20:38;100808.48;;;11.28;42.97
62055;BME280;48653;51.742;-1.256;2023-04-27T11:23:03;100802.61;;;11.45;41.97
62055;BME280;48653;51.742;-1.256;2023-04-27T11:25:29;100797.78;;;11.46;43.36
62055;BME280;48653;51.742;-1.256;2023-04-27T11:27:54;100785.03;;;11.81;42.27
62055;BME280;48653;51.742;-1.256;2023-04-27T11:30:20;100793.80;;;11.55;42.44
62055;BME280;48653;51.742;-1.256;2023-04-27T11:32:45;100781.24;;;11.65;42.78
62055;BME280;48653;51.742;-1.256;2023-04-27T11:35:10;100775.33;;;11.49;42.57
62055;BME280;48653;51.742;-1.256;2023-04-27T11:37:36;100766.40;;;11.84;43.08
62055;BME280;48653;51.742;-1.256;2023-04-27T11:40:01;100756.12;;;12.75;40.93
62055;BME280;48653;51.742;-1.256;2023-04-27T11:42:27;100741.02;;;13.13;40.35
62055;BME280;48653;51.742;-1.256;2023-04-27T11:44:54;100728.28;;;12.48;41.05
62055;BME280;48653;51.742;-1.256;2023-04-27T11:47:18;100723.34;;;13.15;40.54
62055;BME280;48653;51.742;-1.256;2023-04-27T11:49:46;100724.51;;;12.73;41.24
62055;BME280;48653;51.742;-1.256;2023-04-27T11:52:08;100713.97;;;13.40;40.94
62055;BME280;48653;51.742;-1.256;2023-04-27T11:54:34;100718.74;;;12.64;42.15
62055;BME280;48653;51.742;-1.256;2023-04-27T11:57:04;100706.07;;;12.67;42.01
62055;BME280;48653;51.742;-1.256;2023-04-27T11:59:25;100706.40;;;12.66;42.02
62055;BME280;48653;51.742;-1.256;2023-04-27T12:01:50;100698.14;;;13.88;41.28
62055;BME280;48653;51.742;-1.256;2023-04-27T12:04:15;100693.26;;;13.93;39.95
62055;BME280;48653;51.742;-1.256;2023-04-27T12:06:41;100700.63;;;14.79;39.74
62055;BME280;48653;51.742;-1.256;2023-04-27T12:09:06;100695.39;;;14.75;38.48
62055;BME280;48653;51.742;-1.256;2023-04-27T12:11:31;100697.06;;;14.08;38.84
62055;BME280;48653;51.742;-1.256;2023-04-27T12:13:57;100700.56;;;14.09;39.11
62055;BME280;48653;51.742;-1.256;2023-04-27T12:16:22;100694.01;;;14.18;39.37
62055;BME280;48653;51.742;-1.256;2023-04-27T12:18:48;100688.88;;;13.01;41.29
62055;BME280;48653;51.742;-1.256;2023-04-27T12:21:13;100687.31;;;13.55;41.02
62055;BME280;48653;51.742;-1.256;2023-04-27T12:23:38;100676.49;;;13.08;40.94
62055;BME280;48653;51.742;-1.256;2023-04-27T12:26:04;100685.36;;;13.37;40.09
62055;BME280;48653;51.742;-1.256;2023-04-27T12:28:29;100680.85;;;12.73;41.04
62055;BME280;48653;51.742;-1.256;2023-04-27T12:30:55;100680.29;;;12.26;41.86
62055;BME280;48653;51.742;-1.256;2023-04-27T12:33:20;100681.94;;;12.49;41.85
62055;BME280;48653;51.742;-1.256;2023-04-27T12:35:45;100678.19;;;13.51;40.29
62055;BME280;48653;51.742;-1.256;2023-04-27T12:38:11;100685.63;;;12.93;40.63